createdAt,value
2023-01-29T00:00:00.512Z,74
2023-01-29T00:04:00.487Z,74
2023-01-29T00:08:00.522Z,74
2023-01-29T00:12:00.509Z,74
2023-01-29T00:16:00.511Z,73
2023-01-29T00:20:00.473Z,73
2023-01-29T00:24:00.599Z,73
2023-01-29T00:28:00.514Z,73
2023-01-29T00:32:00.759Z,73
2023-01-29T00:36:00.516Z,73
2023-01-29T00:40:00.488Z,73
2023-01-29T00:44:00.500Z,73
2023-01-29T00:48:00.512Z,73
2023-01-29T00:52:00.488Z,73
2023-01-29T00:56:00.573Z,73
2023-01-29T01:00:00.468Z,73
2023-01-29T01:04:00.470Z,72
2023-01-29T01:08:00.485Z,72
2023-01-29T01:12:00.534Z,72
2023-01-29T01:16:00.632Z,72
2023-01-29T01:20:00.522Z,72
2023-01-29T01:24:00.525Z,72
2023-01-29T01:28:00.498Z,72
2023-01-29T01:32:00.563Z,72
2023-01-29T01:36:00.521Z,72
2023-01-29T01:40:00.523Z,72
2023-01-29T01:44:00.517Z,72
2023-01-29T01:48:00.476Z,72
2023-01-29T01:52:00.540Z,72
2023-01-29T01:56:00.494Z,72
2023-01-29T02:00:00.482Z,72
2023-01-29T02:04:00.500Z,72
2023-01-29T02:08:00.490Z,73
2023-01-29T02:12:00.484Z,73
2023-01-29T02:16:00.521Z,73
2023-01-29T02:20:00.505Z,73
2023-01-29T02:24:00.644Z,73
2023-01-29T02:28:00.505Z,73
2023-01-29T02:32:00.546Z,73
2023-01-29T02:36:00.500Z,73
2023-01-29T02:40:00.505Z,73
2023-01-29T02:44:00.479Z,73
2023-01-29T02:48:00.509Z,73
2023-01-29T02:52:00.487Z,73
2023-01-29T02:56:00.516Z,73
2023-01-29T03:00:00.492Z,73
2023-01-29T03:04:00.493Z,73
2023-01-29T03:08:00.502Z,73
2023-01-29T03:12:00.494Z,73
2023-01-29T03:16:00.482Z,73
2023-01-29T03:20:00.488Z,73
2023-01-29T03:24:00.514Z,73
2023-01-29T03:28:00.474Z,73
2023-01-29T03:32:00.590Z,73
2023-01-29T03:36:00.506Z,73
2023-01-29T03:40:00.466Z,73
2023-01-29T03:44:00.559Z,73
2023-01-29T03:48:00.501Z,73
2023-01-29T03:52:00.482Z,73
2023-01-29T03:56:00.491Z,73
2023-01-29T04:00:00.490Z,73
2023-01-29T04:04:00.556Z,73
2023-01-29T04:08:00.505Z,73
2023-01-29T04:12:00.498Z,73
2023-01-29T04:16:00.514Z,73
2023-01-29T04:20:00.490Z,73
2023-01-29T04:24:00.533Z,73
2023-01-29T04:28:00.504Z,73
2023-01-29T04:32:00.508Z,73
2023-01-29T04:36:00.502Z,73
2023-01-29T04:40:00.490Z,73
2023-01-29T04:44:00.491Z,73
2023-01-29T04:48:00.469Z,73
2023-01-29T04:52:00.483Z,73
2023-01-29T04:56:00.467Z,73
2023-01-29T05:00:00.484Z,74
2023-01-29T05:04:00.515Z,74
2023-01-29T05:08:00.492Z,74
2023-01-29T05:12:00.475Z,74
2023-01-29T05:16:00.564Z,74
2023-01-29T05:20:00.494Z,74
2023-01-29T05:24:00.592Z,74
2023-01-29T05:28:00.498Z,74
2023-01-29T05:32:00.567Z,74
2023-01-29T05:36:00.491Z,74
2023-01-29T05:40:00.490Z,74
2023-01-29T05:44:00.481Z,74
2023-01-29T05:48:00.520Z,74
2023-01-29T05:52:00.523Z,75
2023-01-29T05:56:00.493Z,75
2023-01-29T06:00:00.503Z,76
2023-01-29T06:04:00.512Z,76
2023-01-29T06:08:00.528Z,76
2023-01-29T06:12:00.509Z,76
2023-01-29T06:16:00.623Z,76
2023-01-29T06:20:00.537Z,77
2023-01-29T06:24:00.558Z,77
2023-01-29T06:28:00.504Z,77
2023-01-29T06:32:00.737Z,78
2023-01-29T06:36:00.503Z,78
2023-01-29T06:40:00.527Z,78
2023-01-29T06:44:00.510Z,78
2023-01-29T06:48:01.587Z,78
2023-01-29T06:52:00.495Z,79
2023-01-29T06:56:00.496Z,79
2023-01-29T07:00:00.515Z,79
2023-01-29T07:04:00.504Z,79
2023-01-29T07:08:00.496Z,79
2023-01-29T07:12:00.478Z,80
2023-01-29T07:16:00.605Z,80
2023-01-29T07:20:00.486Z,80
2023-01-29T07:24:00.506Z,80
2023-01-29T07:28:01.087Z,80
2023-01-29T07:32:00.595Z,80
2023-01-29T07:36:00.489Z,81
2023-01-29T07:40:00.506Z,81
2023-01-29T07:44:00.508Z,81
2023-01-29T07:48:00.491Z,81
2023-01-29T07:52:00.486Z,81
2023-01-29T07:56:00.521Z,81
2023-01-29T08:00:00.489Z,81
2023-01-29T08:04:00.479Z,82
2023-01-29T08:08:07.024Z,82
2023-01-29T08:12:00.503Z,82
2023-01-29T08:16:00.487Z,82
2023-01-29T08:20:00.474Z,82
2023-01-29T08:28:00.540Z,82
2023-01-29T08:32:00.586Z,82
2023-01-29T08:36:00.513Z,82
2023-01-29T08:40:00.534Z,83
2023-01-29T08:44:00.508Z,83
2023-01-29T08:48:00.480Z,83
2023-01-29T08:52:02.969Z,83
2023-01-29T08:56:00.494Z,83
2023-01-29T09:00:00.513Z,83
2023-01-29T09:04:00.513Z,83
2023-01-29T09:08:00.503Z,83
2023-01-29T09:12:00.504Z,83
2023-01-29T09:16:00.494Z,83
2023-01-29T09:20:00.501Z,83
2023-01-29T09:24:00.490Z,83
2023-01-29T09:28:00.513Z,84
2023-01-29T09:32:00.529Z,84
2023-01-29T09:36:00.490Z,84
2023-01-29T09:40:00.501Z,84
2023-01-29T09:44:00.524Z,84
2023-01-29T09:48:00.528Z,84
2023-01-29T09:52:00.498Z,84
2023-01-29T09:56:00.504Z,84
2023-01-29T10:00:00.507Z,84
2023-01-29T10:04:00.514Z,84
2023-01-29T10:08:00.500Z,84
2023-01-29T10:12:00.495Z,84
2023-01-29T10:16:00.503Z,84
2023-01-29T10:20:00.483Z,84
2023-01-29T10:24:00.502Z,84
2023-01-29T10:28:00.483Z,84
2023-01-29T10:32:00.684Z,84
2023-01-29T10:36:00.512Z,84
2023-01-29T10:40:00.538Z,83
2023-01-29T10:44:00.491Z,83
2023-01-29T10:48:00.516Z,83
2023-01-29T10:52:00.516Z,83
2023-01-29T10:56:02.486Z,82
2023-01-29T11:00:00.525Z,82
2023-01-29T11:04:00.482Z,82
2023-01-29T11:08:00.493Z,81
2023-01-29T11:12:00.492Z,81
2023-01-29T11:16:00.527Z,81
2023-01-29T11:20:00.519Z,80
2023-01-29T11:24:00.516Z,79
2023-01-29T11:28:00.538Z,79
2023-01-29T11:32:00.500Z,79
2023-01-29T11:36:00.512Z,79
2023-01-29T11:40:00.519Z,78
2023-01-29T11:44:00.503Z,78
2023-01-29T11:48:00.514Z,78
2023-01-29T11:52:00.494Z,78
2023-01-29T11:56:00.498Z,77
2023-01-29T12:00:00.477Z,77
2023-01-29T12:04:00.597Z,77
2023-01-29T12:08:00.491Z,77
2023-01-29T12:12:00.495Z,76
2023-01-29T12:16:00.549Z,76
2023-01-29T12:20:00.501Z,76
2023-01-29T12:24:00.505Z,76
2023-01-29T12:28:00.493Z,76
2023-01-29T12:32:00.475Z,75
2023-01-29T12:36:00.499Z,75
2023-01-29T12:40:00.519Z,75
2023-01-29T12:44:00.499Z,74
2023-01-29T12:48:00.519Z,74
2023-01-29T12:52:00.515Z,74
2023-01-29T12:56:00.500Z,73
2023-01-29T13:00:00.488Z,73
2023-01-29T13:04:00.484Z,72
2023-01-29T13:08:00.512Z,72
2023-01-29T13:12:00.527Z,72
2023-01-29T13:16:00.519Z,72
2023-01-29T13:20:00.523Z,72
2023-01-29T13:24:00.498Z,73
2023-01-29T13:28:00.538Z,73
2023-01-29T13:32:00.616Z,73
2023-01-29T13:36:00.498Z,74
2023-01-29T13:40:00.488Z,73
2023-01-29T13:44:00.501Z,74
2023-01-29T13:48:00.534Z,73
2023-01-29T13:52:00.504Z,73
2023-01-29T13:56:00.483Z,74
2023-01-29T14:00:00.491Z,73
2023-01-29T14:04:05.201Z,74
2023-01-29T14:08:00.501Z,74
2023-01-29T14:12:00.499Z,73
2023-01-29T14:16:00.483Z,74
2023-01-29T14:20:00.516Z,74
2023-01-29T14:24:00.490Z,74
2023-01-29T14:28:00.499Z,75
2023-01-29T14:32:00.556Z,75
2023-01-29T14:36:00.484Z,75
2023-01-29T14:40:00.506Z,76
2023-01-29T14:44:00.496Z,76
2023-01-29T14:48:00.485Z,77
2023-01-29T14:52:00.503Z,77
2023-01-29T14:56:00.487Z,77
2023-01-29T15:00:00.512Z,78
2023-01-29T15:04:00.512Z,78
2023-01-29T15:08:00.508Z,78
2023-01-29T15:12:00.496Z,78
2023-01-29T15:16:00.516Z,78
2023-01-29T15:20:00.513Z,79
2023-01-29T15:24:00.497Z,79
2023-01-29T15:28:00.482Z,79
2023-01-29T15:32:00.535Z,79
2023-01-29T15:36:07.848Z,79
2023-01-29T15:40:00.510Z,79
2023-01-29T15:44:00.501Z,79
2023-01-29T15:48:00.549Z,79
2023-01-29T15:52:00.486Z,80
2023-01-29T15:56:00.495Z,80
2023-01-29T16:00:00.633Z,80
2023-01-29T16:04:00.497Z,80
2023-01-29T16:08:00.545Z,80
2023-01-29T16:12:00.513Z,80
2023-01-29T16:16:00.747Z,80
2023-01-29T16:20:00.586Z,80
2023-01-29T16:24:00.508Z,80
2023-01-29T16:28:00.465Z,80
2023-01-29T16:32:00.706Z,80
2023-01-29T16:36:00.494Z,80
2023-01-29T16:40:00.529Z,80
2023-01-29T16:44:00.495Z,80
2023-01-29T16:48:00.483Z,80
2023-01-29T16:52:00.493Z,80
2023-01-29T16:56:00.525Z,80
2023-01-29T17:00:00.536Z,80
2023-01-29T17:04:00.549Z,80
2023-01-29T17:08:00.498Z,80
2023-01-29T17:12:00.481Z,80
2023-01-29T17:16:00.522Z,80
2023-01-29T17:20:00.489Z,80
2023-01-29T17:24:00.513Z,80
2023-01-29T17:28:00.464Z,80
2023-01-29T17:32:00.713Z,80
2023-01-29T17:36:00.499Z,80
2023-01-29T17:40:00.510Z,80
2023-01-29T17:44:00.495Z,80
2023-01-29T17:48:00.498Z,80
2023-01-29T17:52:00.503Z,80
2023-01-29T17:56:00.498Z,81
2023-01-29T18:00:00.516Z,81
2023-01-29T18:04:00.556Z,81
2023-01-29T18:08:00.494Z,81
2023-01-29T18:12:00.511Z,81
2023-01-29T18:16:00.536Z,82
2023-01-29T18:20:00.513Z,82
2023-01-29T18:24:00.520Z,82
2023-01-29T18:28:00.497Z,82
2023-01-29T18:32:00.572Z,82
2023-01-29T18:36:00.490Z,82
2023-01-29T18:40:00.506Z,82
2023-01-29T18:44:00.483Z,82
2023-01-29T18:48:00.490Z,82
2023-01-29T18:52:00.485Z,82
2023-01-29T18:56:00.514Z,82
2023-01-29T19:00:00.497Z,82
2023-01-29T19:04:00.818Z,81
2023-01-29T19:08:00.481Z,81
2023-01-29T19:12:00.500Z,81
2023-01-29T19:16:00.462Z,81
2023-01-29T19:20:00.487Z,81
2023-01-29T19:24:00.491Z,81
2023-01-29T19:28:00.486Z,81
2023-01-29T19:32:00.501Z,80
2023-01-29T19:36:00.481Z,80
2023-01-29T19:40:00.513Z,80
2023-01-29T19:44:00.500Z,80
2023-01-29T19:48:00.667Z,80
2023-01-29T19:52:00.518Z,80
2023-01-29T19:56:00.511Z,81
2023-01-29T20:00:00.502Z,80
2023-01-29T20:04:00.484Z,80
2023-01-29T20:08:00.500Z,80
2023-01-29T20:12:00.517Z,80
2023-01-29T20:16:00.513Z,79
2023-01-29T20:20:00.492Z,79
2023-01-29T20:24:00.498Z,79
2023-01-29T20:28:00.495Z,79
2023-01-29T20:32:00.520Z,79
2023-01-29T20:36:00.511Z,79
2023-01-29T20:40:00.480Z,78
2023-01-29T20:44:00.491Z,78
2023-01-29T20:48:00.504Z,78
2023-01-29T20:52:00.513Z,78
2023-01-29T20:56:02.221Z,78
2023-01-29T21:00:00.501Z,78
2023-01-29T21:04:00.516Z,78
2023-01-29T21:08:00.498Z,78
2023-01-29T21:12:00.523Z,77
2023-01-29T21:16:00.486Z,77
2023-01-29T21:20:00.530Z,77
2023-01-29T21:24:00.499Z,77
2023-01-29T21:28:00.511Z,77
2023-01-29T21:32:00.550Z,77
2023-01-29T21:36:00.488Z,77
2023-01-29T21:40:00.497Z,77
2023-01-29T21:44:00.492Z,76
2023-01-29T21:48:00.506Z,76
2023-01-29T21:52:00.520Z,76
2023-01-29T21:56:00.505Z,76
2023-01-29T22:00:00.522Z,76
2023-01-29T22:04:00.496Z,76
2023-01-29T22:08:00.508Z,76
2023-01-29T22:12:00.499Z,76
2023-01-29T22:16:00.494Z,76
2023-01-29T22:20:00.514Z,76
2023-01-29T22:24:00.502Z,76
2023-01-29T22:28:00.507Z,76
2023-01-29T22:32:00.553Z,76
2023-01-29T22:36:00.528Z,76
2023-01-29T22:40:00.464Z,76
2023-01-29T22:44:00.479Z,76
2023-01-29T22:48:00.458Z,75
2023-01-29T22:52:00.502Z,75
2023-01-29T22:56:00.496Z,75
2023-01-29T23:00:00.459Z,75
2023-01-29T23:04:00.492Z,75
2023-01-29T23:08:00.482Z,75
2023-01-29T23:12:00.500Z,74
2023-01-29T23:16:00.597Z,75
2023-01-29T23:20:00.492Z,74
2023-01-29T23:24:00.502Z,74
2023-01-29T23:28:00.498Z,74
2023-01-29T23:32:00.464Z,74
2023-01-29T23:36:00.497Z,73
2023-01-29T23:40:00.511Z,74
2023-01-29T23:44:00.493Z,73
2023-01-29T23:48:00.508Z,73
2023-01-29T23:52:00.499Z,73
2023-01-29T23:56:00.508Z,73
